Time;durP1;ratioP1;P1;durP2;ratioP2;P2;SDS_P1;SDS_P2;PMS_P1;PMS_P2;Temp;Humidity;BMP_temperature;BMP_pressure;BME280_temperature;BME280_humidity;BME280_pressure;Samples;Min_cycle;Max_cycle;Signal;HPM_P1;HPM_P2
2022/08/15 00:00:54;;;;;;;;;;;20.50;99.90;;;;;;5045353;28;19921;-82
2022/08/15 00:03:22;;;;;;;;;;;20.50;99.90;;;;;;5035076;28;19927;-83
2022/08/15 00:05:49;;;;;;;;;;;20.50;99.90;;;;;;5030061;28;19953;-82
2022/08/15 00:08:17;;;;;;;;;;;20.50;99.90;;;;;;5044393;28;19928;-82
2022/08/15 00:10:45;;;;;;;;;;;20.50;99.90;;;;;;5054746;28;19974;-82
2022/08/15 00:13:13;;;;;;;;;;;20.40;99.90;;;;;;5051829;28;19929;-82
2022/08/15 00:15:41;;;;;;;;;;;20.50;99.90;;;;;;5049629;28;20436;-82
2022/08/15 00:18:08;;;;;;;;;;;20.50;99.90;;;;;;5049757;28;19921;-82
2022/08/15 00:20:37;;;;;;;;;;;20.40;99.90;;;;;;5044538;28;19932;-82
2022/08/15 00:23:04;;;;;;;;;;;19.50;99.90;;;;;;5027751;28;20299;-83
2022/08/15 00:25:31;;;;;;;;;;;20.50;99.90;;;;;;5033967;28;20374;-83
2022/08/15 00:27:58;;;;;;;;;;;20.50;99.90;;;;;;5044209;28;19924;-82
2022/08/15 00:30:26;;;;;;;;;;;20.40;99.90;;;;;;5049150;28;19931;-81
2022/08/15 00:32:55;;;;;;;;;;;20.40;99.90;;;;;;5047668;28;20023;-82
2022/08/15 00:38:06;;;;;;;;;;;20.40;99.90;;;;;;5038177;28;20634;-81
2022/08/15 00:41:38;;;;;;;;;;;20.40;99.90;;;;;;5048200;28;19928;-83
2022/08/15 00:43:20;;;;;;;;;;;20.40;99.90;;;;;;5048292;28;19990;-83
2022/08/15 00:45:47;;;;;;;;;;;20.30;99.90;;;;;;5050114;28;19950;-82
2022/08/15 00:50:59;;;;;;;;;;;20.30;99.90;;;;;;5051879;28;20501;-82
2022/08/15 00:53:27;;;;;;;;;;;20.30;99.90;;;;;;5060015;28;19924;-82
2022/08/15 00:55:54;;;;;;;;;;;20.30;99.90;;;;;;5059864;28;19921;-81
2022/08/15 00:58:21;;;;;;;;;;;20.30;99.90;;;;;;5059989;28;19966;-82
2022/08/15 01:00:48;;;;;;;;;;;20.30;99.90;;;;;;5054767;28;19931;-82
2022/08/15 01:03:18;;;;;;;;;;;21.60;99.90;;;;;;5060098;28;19925;-83
2022/08/15 01:05:46;;;;;;;;;;;20.40;99.90;;;;;;5061920;28;19940;-82
2022/08/15 01:08:16;;;;;;;;;;;20.40;99.90;;;;;;5055712;28;19925;-82
2022/08/15 01:10:43;;;;;;;;;;;21.00;99.90;;;;;;5060133;28;19921;-82
2022/08/15 01:13:10;;;;;;;;;;;20.50;99.90;;;;;;5053144;28;19921;-82
2022/08/15 01:19:09;;;;;;;;;;;20.50;99.90;;;;;;5033320;28;20032;-82
2022/08/15 01:21:38;;;;;;;;;;;20.60;99.90;;;;;;5054164;28;19928;-82
2022/08/15 01:24:13;;;;;;;;;;;20.60;99.90;;;;;;5055066;28;19970;-82
2022/08/15 01:26:42;;;;;;;;;;;20.60;99.90;;;;;;5043781;28;20515;-82
2022/08/15 01:29:09;;;;;;;;;;;20.70;99.90;;;;;;5050767;28;19924;-82
2022/08/15 01:31:36;;;;;;;;;;;20.70;99.90;;;;;;5044510;28;19987;-82
2022/08/15 01:34:03;;;;;;;;;;;20.70;99.90;;;;;;5040797;28;19924;-82
2022/08/15 01:36:31;;;;;;;;;;;20.70;99.90;;;;;;5051800;28;19978;-82
2022/08/15 01:39:01;;;;;;;;;;;20.60;99.90;;;;;;5054071;28;20019;-82
2022/08/15 01:41:32;;;;;;;;;;;20.60;99.90;;;;;;5037879;28;19925;-83
2022/08/15 01:44:04;;;;;;;;;;;20.60;99.90;;;;;;5048653;28;19921;-82
2022/08/15 01:46:33;;;;;;;;;;;20.60;99.90;;;;;;5044894;28;19924;-82
2022/08/15 01:49:02;;;;;;;;;;;20.60;99.90;;;;;;5061030;28;19928;-82
2022/08/15 01:51:29;;;;;;;;;;;20.70;99.90;;;;;;5050103;28;19955;-82
2022/08/15 01:53:59;;;;;;;;;;;20.70;99.90;;;;;;5044901;28;20322;-82
2022/08/15 01:56:28;;;;;;;;;;;20.80;99.90;;;;;;5039513;28;20047;-82
2022/08/15 01:58:57;;;;;;;;;;;20.80;99.90;;;;;;5044203;28;19931;-83
2022/08/15 02:01:38;;;;;;;;;;;20.80;99.90;;;;;;5042957;28;19921;-82
2022/08/15 02:04:05;;;;;;;;;;;20.80;99.90;;;;;;5032290;28;19956;-82
2022/08/15 02:06:32;;;;;;;;;;;20.80;99.90;;;;;;5044748;28;19931;-84
2022/08/15 02:09:00;;;;;;;;;;;20.90;99.90;;;;;;5041790;28;20011;-82
2022/08/15 02:11:29;;;;;;;;;;;20.90;99.90;;;;;;5040260;28;20046;-82
2022/08/15 02:13:57;;;;;;;;;;;20.90;99.90;;;;;;5038130;28;19932;-83
2022/08/15 02:16:25;;;;;;;;;;;20.90;99.90;;;;;;5046195;28;19932;-83
2022/08/15 02:18:53;;;;;;;;;;;20.90;99.90;;;;;;5033397;28;19948;-82
2022/08/15 02:21:20;;;;;;;;;;;21.00;99.90;;;;;;5041390;28;20014;-82
2022/08/15 02:23:48;;;;;;;;;;;20.90;99.90;;;;;;5033903;28;19935;-82
2022/08/15 02:26:15;;;;;;;;;;;21.00;99.90;;;;;;5041380;28;19925;-82
2022/08/15 02:28:43;;;;;;;;;;;21.00;99.90;;;;;;5036338;28;19925;-82
2022/08/15 02:31:11;;;;;;;;;;;21.00;99.90;;;;;;5036812;28;19929;-84
2022/08/15 02:33:38;;;;;;;;;;;21.00;99.90;;;;;;5039605;28;19936;-83
2022/08/15 02:36:07;;;;;;;;;;;21.00;99.90;;;;;;5046953;28;20012;-83
2022/08/15 02:38:34;;;;;;;;;;;21.00;99.90;;;;;;5045599;28;19928;-84
2022/08/15 02:41:01;;;;;;;;;;;21.00;99.90;;;;;;5050810;28;19921;-83
2022/08/15 02:43:28;;;;;;;;;;;21.10;99.90;;;;;;5046515;28;19932;-83
2022/08/15 02:45:59;;;;;;;;;;;21.10;99.90;;;;;;5047163;28;19924;-83
2022/08/15 02:48:27;;;;;;;;;;;21.10;99.90;;;;;;5049987;28;19920;-83
2022/08/15 02:50:54;;;;;;;;;;;21.10;99.90;;;;;;5047704;28;20374;-83
2022/08/15 02:53:22;;;;;;;;;;;21.10;99.90;;;;;;5040340;28;19951;-83
2022/08/15 02:55:50;;;;;;;;;;;21.10;99.90;;;;;;5031092;28;19925;-83
2022/08/15 02:58:17;;;;;;;;;;;21.10;99.90;;;;;;5043144;28;20024;-83
2022/08/15 03:00:45;;;;;;;;;;;21.10;99.90;;;;;;5037371;28;20639;-84
2022/08/15 03:03:14;;;;;;;;;;;21.10;99.90;;;;;;5049833;28;19920;-83
2022/08/15 03:05:43;;;;;;;;;;;21.10;99.90;;;;;;5049313;28;19928;-83
2022/08/15 03:08:11;;;;;;;;;;;21.00;99.90;;;;;;5046152;28;19909;-83
2022/08/15 03:10:40;;;;;;;;;;;21.00;99.90;;;;;;5057629;28;20042;-84
2022/08/15 03:13:13;;;;;;;;;;;21.00;99.90;;;;;;5036161;28;19976;-83
2022/08/15 03:15:42;;;;;;;;;;;21.00;99.90;;;;;;5056073;28;20613;-83
2022/08/15 03:18:10;;;;;;;;;;;20.90;99.90;;;;;;5054579;28;20596;-84
2022/08/15 03:20:37;;;;;;;;;;;20.90;99.90;;;;;;5049012;28;19936;-83
2022/08/15 03:23:04;;;;;;;;;;;20.90;99.90;;;;;;5048454;28;19925;-84
2022/08/15 03:25:40;;;;;;;;;;;20.90;99.90;;;;;;5032919;28;19929;-83
2022/08/15 03:28:08;;;;;;;;;;;20.90;99.90;;;;;;5044641;28;20031;-83
2022/08/15 03:30:36;;;;;;;;;;;20.90;99.90;;;;;;5046038;28;19998;-83
2022/08/15 03:33:05;;;;;;;;;;;20.80;99.90;;;;;;5044919;28;19925;-84
2022/08/15 03:35:40;;;;;;;;;;;20.80;99.90;;;;;;5034115;28;20235;-83
2022/08/15 03:38:08;;;;;;;;;;;20.80;99.90;;;;;;5050465;28;20424;-83
2022/08/15 03:40:38;;;;;;;;;;;20.80;99.90;;;;;;5042423;28;19920;-83
2022/08/15 03:43:08;;;;;;;;;;;20.80;99.90;;;;;;5042495;28;19928;-83
2022/08/15 03:45:35;;;;;;;;;;;20.80;99.90;;;;;;5048681;28;19994;-83
2022/08/15 03:48:06;;;;;;;;;;;20.80;99.90;;;;;;5043466;28;19925;-84
2022/08/15 03:50:33;;;;;;;;;;;20.80;99.90;;;;;;5039511;28;19928;-83
2022/08/15 03:53:05;;;;;;;;;;;20.80;99.90;;;;;;5041464;28;19924;-84
2022/08/15 03:55:33;;;;;;;;;;;20.80;99.90;;;;;;5036687;28;20345;-83
2022/08/15 03:58:01;;;;;;;;;;;20.80;99.90;;;;;;5032034;28;19966;-83
2022/08/15 04:00:31;;;;;;;;;;;20.70;99.90;;;;;;5044361;28;19921;-84
2022/08/15 04:03:06;;;;;;;;;;;20.70;99.90;;;;;;5048565;28;19921;-83
2022/08/15 04:05:34;;;;;;;;;;;20.70;99.90;;;;;;5043280;28;19920;-84
2022/08/15 04:08:02;;;;;;;;;;;20.80;99.90;;;;;;5053474;28;19979;-83
2022/08/15 04:10:29;;;;;;;;;;;20.70;99.90;;;;;;5066215;28;20011;-83
2022/08/15 04:12:56;;;;;;;;;;;20.80;99.90;;;;;;5049442;28;20000;-83
2022/08/15 04:15:23;;;;;;;;;;;20.70;99.90;;;;;;5049157;28;19958;-83
2022/08/15 04:17:52;;;;;;;;;;;20.70;99.90;;;;;;5046744;28;20461;-84
2022/08/15 04:20:19;;;;;;;;;;;20.70;99.90;;;;;;5038864;28;19928;-84
2022/08/15 04:22:49;;;;;;;;;;;20.70;99.90;;;;;;5048950;28;20394;-86
2022/08/15 04:25:17;;;;;;;;;;;20.80;99.90;;;;;;5038324;28;19921;-85
2022/08/15 04:27:43;;;;;;;;;;;20.80;99.90;;;;;;5040928;28;20417;-85
2022/08/15 04:30:11;;;;;;;;;;;20.90;99.90;;;;;;5037520;28;20454;-85
2022/08/15 04:32:38;;;;;;;;;;;21.00;99.90;;;;;;5042616;28;20329;-86
2022/08/15 04:35:10;;;;;;;;;;;21.00;99.90;;;;;;5027752;28;20374;-86
2022/08/15 04:37:39;;;;;;;;;;;21.10;99.90;;;;;;5039147;28;20006;-85
2022/08/15 04:40:07;;;;;;;;;;;21.10;99.90;;;;;;5046565;28;19924;-86
2022/08/15 04:42:33;;;;;;;;;;;21.20;99.90;;;;;;5043290;28;19960;-85
2022/08/15 04:45:01;;;;;;;;;;;21.30;99.90;;;;;;5042750;28;20454;-85
2022/08/15 04:47:28;;;;;;;;;;;21.40;99.90;;;;;;5031251;28;20732;-85
2022/08/15 04:49:55;;;;;;;;;;;21.40;99.90;;;;;;5041326;28;19924;-86
2022/08/15 04:52:23;;;;;;;;;;;21.50;99.90;;;;;;5027154;28;20007;-85
2022/08/15 04:54:55;;;;;;;;;;;21.60;99.90;;;;;;5041776;28;19974;-85
2022/08/15 04:57:23;;;;;;;;;;;21.60;99.90;;;;;;5045301;28;19925;-85
2022/08/15 04:59:51;;;;;;;;;;;21.70;99.90;;;;;;5030948;28;20314;-85
2022/08/15 05:02:24;;;;;;;;;;;21.70;99.90;;;;;;5030453;28;20175;-85
2022/08/15 05:04:51;;;;;;;;;;;21.70;99.90;;;;;;5042883;28;19924;-85
2022/08/15 05:07:18;;;;;;;;;;;21.80;99.90;;;;;;5046557;28;20015;-85
2022/08/15 05:09:46;;;;;;;;;;;21.80;99.90;;;;;;5039512;28;19969;-84
2022/08/15 05:12:13;;;;;;;;;;;21.80;99.90;;;;;;5028345;28;19921;-85
2022/08/15 05:14:40;;;;;;;;;;;21.90;99.90;;;;;;5050285;28;19925;-87
2022/08/15 05:17:11;;;;;;;;;;;21.90;99.90;;;;;;5040584;28;19925;-85
2022/08/15 05:19:39;;;;;;;;;;;21.90;99.90;;;;;;5027628;28;19946;-86
2022/08/15 05:22:06;;;;;;;;;;;21.90;99.90;;;;;;5025943;28;20375;-85
2022/08/15 05:24:32;;;;;;;;;;;21.90;99.90;;;;;;5028066;28;19939;-86
2022/08/15 05:27:02;;;;;;;;;;;22.00;99.90;;;;;;5038083;28;19925;-86
2022/08/15 05:29:29;;;;;;;;;;;22.00;99.90;;;;;;5027981;28;20027;-85
2022/08/15 05:31:56;;;;;;;;;;;22.00;99.90;;;;;;5039143;28;19921;-85
2022/08/15 05:34:24;;;;;;;;;;;22.00;99.90;;;;;;5044562;28;19994;-85
2022/08/15 05:36:55;;;;;;;;;;;22.00;99.90;;;;;;5039553;28;20809;-86
2022/08/15 05:39:23;;;;;;;;;;;22.00;99.90;;;;;;5036788;28;19925;-86
2022/08/15 05:41:56;;;;;;;;;;;22.00;99.90;;;;;;5044452;28;19924;-85
2022/08/15 05:44:31;;;;;;;;;;;22.10;99.90;;;;;;5054296;28;19924;-85
2022/08/15 05:47:05;;;;;;;;;;;22.10;99.90;;;;;;5056105;28;19956;-86
2022/08/15 05:49:38;;;;;;;;;;;22.20;99.90;;;;;;5061437;28;19951;-86
2022/08/15 05:52:13;;;;;;;;;;;22.20;99.90;;;;;;5045815;28;19921;-86
2022/08/15 05:54:48;;;;;;;;;;;22.30;99.90;;;;;;5040145;28;19927;-87
2022/08/15 05:57:18;;;;;;;;;;;22.30;99.90;;;;;;5048594;28;19931;-86
2022/08/15 05:59:48;;;;;;;;;;;22.40;99.90;;;;;;5039206;28;19935;-86
2022/08/15 06:02:17;;;;;;;;;;;22.50;99.90;;;;;;5041446;28;19931;-87
2022/08/15 06:04:46;;;;;;;;;;;22.60;99.90;;;;;;5051275;28;19930;-86
2022/08/15 06:07:15;;;;;;;;;;;22.60;99.90;;;;;;5031249;28;19929;-84
2022/08/15 06:09:45;;;;;;;;;;;22.20;99.90;;;;;;5047228;28;20470;-84
2022/08/15 06:12:19;;;;;;;;;;;22.90;99.90;;;;;;5045646;28;19924;-84
2022/08/15 06:14:51;;;;;;;;;;;22.90;99.90;;;;;;5045009;28;19925;-84
2022/08/15 06:17:20;;;;;;;;;;;23.00;99.90;;;;;;5041913;28;20015;-84
2022/08/15 06:19:50;;;;;;;;;;;23.00;99.90;;;;;;5049170;28;19992;-84
2022/08/15 06:22:29;;;;;;;;;;;23.00;99.90;;;;;;5041386;28;19929;-84
2022/08/15 06:25:02;;;;;;;;;;;23.10;99.90;;;;;;5036315;28;19960;-84
2022/08/15 06:27:33;;;;;;;;;;;23.10;99.90;;;;;;5030476;28;19936;-84
2022/08/15 06:30:06;;;;;;;;;;;23.20;99.90;;;;;;5041126;28;19939;-84
2022/08/15 06:32:40;;;;;;;;;;;23.20;99.90;;;;;;5042715;28;20395;-84
2022/08/15 06:35:14;;;;;;;;;;;23.30;99.90;;;;;;5049949;28;20459;-84
2022/08/15 06:37:46;;;;;;;;;;;23.40;99.90;;;;;;5048762;28;19920;-84
2022/08/15 06:40:16;;;;;;;;;;;23.40;99.90;;;;;;5043934;28;19924;-84
2022/08/15 06:42:44;;;;;;;;;;;23.40;99.90;;;;;;5038717;28;19925;-83
2022/08/15 06:45:17;;;;;;;;;;;23.50;99.90;;;;;;5050493;28;19943;-82
2022/08/15 06:47:45;;;;;;;;;;;23.60;99.90;;;;;;5049430;28;20015;-83
2022/08/15 06:50:15;;;;;;;;;;;23.60;99.90;;;;;;5048462;28;19925;-83
2022/08/15 06:52:44;;;;;;;;;;;23.60;99.90;;;;;;5056252;28;20278;-83
2022/08/15 06:55:13;;;;;;;;;;;23.60;99.90;;;;;;5051189;28;20568;-83
2022/08/15 06:57:45;;;;;;;;;;;23.60;99.90;;;;;;5051402;28;20143;-83
2022/08/15 07:00:17;;;;;;;;;;;24.90;99.90;;;;;;5050307;28;19943;-83
2022/08/15 07:02:56;;;;;;;;;;;23.60;99.90;;;;;;5046090;28;19936;-83
2022/08/15 07:05:26;;;;;;;;;;;23.60;99.90;;;;;;5052686;28;19950;-83
2022/08/15 07:07:56;;;;;;;;;;;23.60;99.90;;;;;;5035417;28;20314;-82
2022/08/15 07:10:31;;;;;;;;;;;23.70;99.90;;;;;;5042663;28;19921;-82
2022/08/15 07:13:04;;;;;;;;;;;23.60;99.90;;;;;;5038121;28;19956;-82
2022/08/15 07:15:36;;;;;;;;;;;23.70;99.90;;;;;;5048229;28;19920;-82
2022/08/15 07:18:07;;;;;;;;;;;23.80;99.90;;;;;;5047188;28;19958;-82
2022/08/15 07:20:35;;;;;;;;;;;23.80;99.90;;;;;;5049664;28;19970;-82
2022/08/15 07:23:14;;;;;;;;;;;23.90;99.90;;;;;;5048805;28;19947;-83
2022/08/15 07:25:44;;;;;;;;;;;23.70;99.90;;;;;;5047766;28;20317;-83
2022/08/15 07:28:11;;;;;;;;;;;24.10;99.90;;;;;;5050767;28;19988;-82
2022/08/15 07:30:45;;;;;;;;;;;24.20;99.90;;;;;;5048367;28;19928;-83
2022/08/15 07:33:28;;;;;;;;;;;24.30;99.90;;;;;;5046580;28;19947;-83
2022/08/15 07:36:04;;;;;;;;;;;24.50;99.90;;;;;;5050652;28;20383;-82
2022/08/15 07:38:32;;;;;;;;;;;24.70;99.90;;;;;;5043915;28;19927;-82
2022/08/15 07:41:18;;;;;;;;;;;24.90;99.90;;;;;;5049432;28;19988;-83
2022/08/15 07:43:46;;;;;;;;;;;25.00;99.90;;;;;;5053442;28;19924;-82
2022/08/15 07:46:18;;;;;;;;;;;25.20;99.90;;;;;;5058182;28;19920;-82
2022/08/15 07:48:53;;;;;;;;;;;25.30;99.90;;;;;;5054496;28;20505;-82
2022/08/15 07:51:23;;;;;;;;;;;26.10;99.90;;;;;;5052109;28;19925;-82
2022/08/15 07:54:00;;;;;;;;;;;25.70;99.90;;;;;;5046833;28;20333;-82
2022/08/15 07:56:36;;;;;;;;;;;26.00;99.90;;;;;;5050520;28;19935;-82
2022/08/15 07:59:12;;;;;;;;;;;26.20;99.90;;;;;;5050681;28;19964;-81
2022/08/15 08:01:39;;;;;;;;;;;26.40;99.90;;;;;;5041339;28;19928;-82
2022/08/15 08:04:10;;;;;;;;;;;26.50;99.90;;;;;;5049065;28;19976;-82
2022/08/15 08:06:41;;;;;;;;;;;26.60;99.90;;;;;;5046321;28;19931;-82
2022/08/15 08:09:14;;;;;;;;;;;26.60;99.90;;;;;;5050905;28;20015;-82
2022/08/15 08:11:44;;;;;;;;;;;26.70;99.90;;;;;;5037656;28;20377;-82
2022/08/15 08:14:16;;;;;;;;;;;26.70;99.90;;;;;;5058927;28;19928;-82
2022/08/15 08:16:45;;;;;;;;;;;26.80;99.90;;;;;;5046127;28;19932;-82
2022/08/15 08:19:15;;;;;;;;;;;26.80;99.90;;;;;;5057392;28;20007;-83
2022/08/15 08:21:50;;;;;;;;;;;26.90;99.80;;;;;;5055030;28;19948;-82
2022/08/15 08:24:22;;;;;;;;;;;27.00;99.80;;;;;;5059767;28;20027;-82
2022/08/15 08:26:54;;;;;;;;;;;27.10;99.70;;;;;;5057290;28;20391;-82
2022/08/15 08:29:27;;;;;;;;;;;27.30;99.40;;;;;;5052983;28;20017;-82
2022/08/15 08:32:01;;;;;;;;;;;27.80;99.00;;;;;;5042437;28;19964;-82
2022/08/15 08:34:32;;;;;;;;;;;27.80;99.10;;;;;;5041473;28;20000;-82
2022/08/15 08:37:04;;;;;;;;;;;28.20;98.60;;;;;;5049434;28;19921;-82
2022/08/15 08:39:35;;;;;;;;;;;28.40;98.10;;;;;;5051231;28;19921;-82
2022/08/15 08:42:07;;;;;;;;;;;28.50;97.60;;;;;;5050862;28;19924;-82
2022/08/15 08:44:37;;;;;;;;;;;28.50;97.40;;;;;;5050658;28;19924;-82
2022/08/15 08:47:11;;;;;;;;;;;28.60;97.20;;;;;;5050634;28;19924;-83
2022/08/15 08:49:42;;;;;;;;;;;28.60;96.90;;;;;;5048004;28;19975;-82
2022/08/15 08:52:14;;;;;;;;;;;28.70;96.80;;;;;;5045807;28;20314;-81
2022/08/15 08:54:47;;;;;;;;;;;28.70;96.50;;;;;;5029788;28;20306;-81
2022/08/15 08:57:17;;;;;;;;;;;28.80;96.50;;;;;;5045490;28;19928;-81
2022/08/15 08:59:47;;;;;;;;;;;28.90;96.40;;;;;;5050122;28;19986;-80
2022/08/15 09:02:16;;;;;;;;;;;29.00;96.20;;;;;;5047313;28;19926;-80
2022/08/15 09:04:49;;;;;;;;;;;29.10;95.80;;;;;;5042114;28;20027;-80
2022/08/15 09:07:20;;;;;;;;;;;29.20;95.70;;;;;;5039274;28;20366;-80
2022/08/15 09:09:49;;;;;;;;;;;28.90;95.40;;;;;;5050374;28;20290;-80
2022/08/15 09:15:04;;;;;;;;;;;30.20;94.80;;;;;;5039476;28;19939;-81
2022/08/15 09:17:33;;;;;;;;;;;30.50;94.30;;;;;;5059966;28;19913;-82
2022/08/15 09:20:05;;;;;;;;;;;30.70;93.70;;;;;;5052880;28;19932;-82
2022/08/15 09:22:33;;;;;;;;;;;30.70;93.50;;;;;;5039332;28;20027;-82
2022/08/15 09:25:00;;;;;;;;;;;30.60;92.90;;;;;;5041276;28;19933;-82
2022/08/15 09:27:33;;;;;;;;;;;30.50;92.80;;;;;;5031243;28;19931;-81
2022/08/15 09:30:04;;;;;;;;;;;30.40;92.70;;;;;;5043789;28;19925;-81
2022/08/15 09:32:39;;;;;;;;;;;30.20;92.70;;;;;;5041421;28;19921;-82
2022/08/15 09:35:13;;;;;;;;;;;30.00;92.90;;;;;;5038309;28;19921;-84
2022/08/15 09:38:00;;;;;;;;;;;29.80;92.90;;;;;;5044108;28;20398;-83
2022/08/15 09:40:50;;;;;;;;;;;29.60;93.00;;;;;;5054029;28;20035;-84
2022/08/15 09:43:24;;;;;;;;;;;29.30;93.10;;;;;;5042800;28;19968;-83
2022/08/15 09:45:56;;;;;;;;;;;29.20;93.50;;;;;;5029929;28;20294;-83
2022/08/15 09:48:34;;;;;;;;;;;29.00;93.50;;;;;;5044836;28;20386;-83
2022/08/15 09:51:16;;;;;;;;;;;28.80;93.60;;;;;;5042394;28;19947;-83
2022/08/15 09:54:11;;;;;;;;;;;28.60;93.90;;;;;;5042411;28;19925;-83
2022/08/15 09:56:40;;;;;;;;;;;28.50;94.00;;;;;;5016199;28;20287;-83
2022/08/15 09:59:10;;;;;;;;;;;28.30;94.40;;;;;;5028005;28;19948;-82
2022/08/15 10:01:44;;;;;;;;;;;28.20;94.60;;;;;;5038976;28;19927;-83
2022/08/15 10:04:12;;;;;;;;;;;28.10;94.80;;;;;;5040511;28;19931;-84
2022/08/15 10:06:51;;;;;;;;;;;28.10;94.90;;;;;;5047644;28;19936;-83
2022/08/15 10:09:22;;;;;;;;;;;28.10;95.00;;;;;;5063062;28;20067;-82
2022/08/15 10:11:58;;;;;;;;;;;28.10;94.90;;;;;;5068844;28;19944;-84
2022/08/15 10:14:26;;;;;;;;;;;28.10;95.20;;;;;;5050548;28;19924;-83
2022/08/15 10:16:55;;;;;;;;;;;28.20;95.30;;;;;;5047777;28;19925;-83
2022/08/15 10:19:32;;;;;;;;;;;28.20;95.30;;;;;;5044707;28;19925;-84
2022/08/15 10:22:00;;;;;;;;;;;28.40;95.10;;;;;;5048976;28;19920;-83
2022/08/15 10:24:29;;;;;;;;;;;28.40;95.50;;;;;;5044680;28;19927;-83
2022/08/15 10:27:15;;;;;;;;;;;28.40;95.40;;;;;;5044981;28;19921;-85
2022/08/15 10:29:47;;;;;;;;;;;28.50;95.40;;;;;;5043140;28;19925;-85
2022/08/15 10:32:21;;;;;;;;;;;28.50;95.40;;;;;;5034423;28;19921;-84
2022/08/15 10:34:55;;;;;;;;;;;28.50;95.50;;;;;;5048477;28;20003;-84
2022/08/15 10:37:23;;;;;;;;;;;28.70;95.50;;;;;;5043053;28;20015;-85
2022/08/15 10:40:01;;;;;;;;;;;28.80;95.20;;;;;;5042239;28;19940;-85
2022/08/15 10:42:31;;;;;;;;;;;28.90;95.20;;;;;;5049564;28;20428;-85
2022/08/15 10:45:03;;;;;;;;;;;29.10;95.20;;;;;;5050390;28;19951;-84
2022/08/15 10:47:34;;;;;;;;;;;29.20;95.10;;;;;;5044912;28;20222;-85
2022/08/15 10:50:05;;;;;;;;;;;29.20;95.00;;;;;;5042168;28;20019;-85
2022/08/15 10:52:38;;;;;;;;;;;29.40;94.90;;;;;;5041338;28;19929;-86
2022/08/15 10:55:23;;;;;;;;;;;29.50;94.70;;;;;;5043402;28;19925;-83
2022/08/15 10:57:53;;;;;;;;;;;29.50;94.50;;;;;;5060408;28;19971;-89
2022/08/15 11:00:32;;;;;;;;;;;29.40;94.60;;;;;;5058250;28;19929;-84
2022/08/15 11:03:01;;;;;;;;;;;29.30;94.60;;;;;;5056889;28;19948;-85
2022/08/15 11:05:28;;;;;;;;;;;29.00;94.30;;;;;;5056399;28;19940;-86
2022/08/15 11:07:55;;;;;;;;;;;29.00;94.70;;;;;;5052062;28;19925;-85
2022/08/15 11:10:24;;;;;;;;;;;28.90;94.90;;;;;;5048572;28;19932;-86
2022/08/15 11:12:54;;;;;;;;;;;28.80;94.90;;;;;;5046926;28;19972;-86
2022/08/15 11:15:24;;;;;;;;;;;28.60;95.20;;;;;;5042010;28;19925;-86
2022/08/15 11:17:54;;;;;;;;;;;28.30;95.30;;;;;;5052071;28;19928;-83
2022/08/15 11:20:23;;;;;;;;;;;28.10;95.50;;;;;;5051755;28;20382;-85
2022/08/15 11:22:51;;;;;;;;;;;27.90;95.70;;;;;;5049860;28;20325;-85
2022/08/15 11:25:20;;;;;;;;;;;27.60;95.90;;;;;;5060053;28;20459;-82
2022/08/15 11:28:03;;;;;;;;;;;27.50;96.30;;;;;;5064737;28;19909;-82
2022/08/15 11:30:42;;;;;;;;;;;27.40;96.60;;;;;;5076309;28;19943;-82
2022/08/15 11:33:20;;;;;;;;;;;27.20;96.80;;;;;;5061219;28;19913;-82
2022/08/15 11:35:49;;;;;;;;;;;27.10;97.00;;;;;;5075063;28;19909;-81
2022/08/15 11:38:17;;;;;;;;;;;27.10;97.10;;;;;;5068566;28;20083;-82
2022/08/15 11:40:52;;;;;;;;;;;27.00;97.00;;;;;;5077365;28;19908;-83
2022/08/15 11:43:27;;;;;;;;;;;27.10;97.60;;;;;;5068829;28;19920;-86
2022/08/15 11:45:54;;;;;;;;;;;27.20;97.70;;;;;;5060190;28;19927;-86
2022/08/15 11:48:25;;;;;;;;;;;27.30;97.80;;;;;;5039398;28;20019;-84
2022/08/15 11:50:56;;;;;;;;;;;27.50;97.70;;;;;;5054930;28;19936;-84
2022/08/15 11:53:27;;;;;;;;;;;27.60;97.60;;;;;;5051429;28;19922;-83
2022/08/15 11:55:53;;;;;;;;;;;27.80;97.60;;;;;;5052179;28;19936;-84
2022/08/15 11:58:23;;;;;;;;;;;27.80;97.40;;;;;;5041231;28;19924;-84
2022/08/15 12:00:52;;;;;;;;;;;27.80;97.40;;;;;;5054831;28;20573;-85
2022/08/15 12:03:20;;;;;;;;;;;27.80;97.30;;;;;;5060191;28;19936;-85
2022/08/15 12:05:47;;;;;;;;;;;27.70;97.30;;;;;;5040784;28;19924;-85
2022/08/15 12:08:20;;;;;;;;;;;27.50;97.20;;;;;;5045578;28;19932;-87
2022/08/15 12:10:47;;;;;;;;;;;27.40;97.40;;;;;;5040093;28;19921;-84
2022/08/15 12:13:16;;;;;;;;;;;27.20;97.10;;;;;;5050245;28;20000;-85
2022/08/15 12:15:44;;;;;;;;;;;27.20;97.70;;;;;;5040599;28;19929;-85
2022/08/15 12:18:14;;;;;;;;;;;27.10;97.90;;;;;;5035745;28;19928;-85
2022/08/15 12:20:45;;;;;;;;;;;27.00;98.10;;;;;;5037760;28;20357;-85
2022/08/15 12:23:25;;;;;;;;;;;27.00;98.20;;;;;;5050926;28;19992;-85
2022/08/15 12:25:52;;;;;;;;;;;27.00;98.20;;;;;;5042703;28;19924;-87
2022/08/15 12:28:19;;;;;;;;;;;27.00;98.30;;;;;;5041779;28;19929;-85
2022/08/15 12:30:46;;;;;;;;;;;27.00;98.40;;;;;;5044868;28;19928;-87
2022/08/15 12:33:15;;;;;;;;;;;27.10;98.50;;;;;;5051215;28;19935;-86
2022/08/15 12:35:42;;;;;;;;;;;27.10;98.50;;;;;;5041539;28;19921;-85
2022/08/15 12:38:09;;;;;;;;;;;27.10;98.50;;;;;;5053226;28;19924;-85
2022/08/15 12:40:36;;;;;;;;;;;27.20;98.60;;;;;;5041174;28;19924;-85
2022/08/15 12:43:03;;;;;;;;;;;27.20;98.60;;;;;;5041409;28;20086;-85
2022/08/15 12:45:29;;;;;;;;;;;27.20;98.80;;;;;;5032901;28;19924;-85
2022/08/15 12:47:56;;;;;;;;;;;27.20;99.10;;;;;;5040898;28;19932;-86
2022/08/15 12:50:24;;;;;;;;;;;27.10;99.50;;;;;;5039386;28;19929;-85
2022/08/15 12:52:51;;;;;;;;;;;27.00;99.90;;;;;;5037287;28;19936;-86
2022/08/15 12:55:18;;;;;;;;;;;26.90;99.70;;;;;;5041150;28;19964;-85
2022/08/15 12:57:45;;;;;;;;;;;26.80;99.80;;;;;;5039521;28;19939;-85
2022/08/15 13:00:12;;;;;;;;;;;26.80;99.70;;;;;;5057098;28;20032;-86
2022/08/15 13:02:40;;;;;;;;;;;26.80;99.90;;;;;;5051364;28;19921;-85
2022/08/15 13:05:10;;;;;;;;;;;26.80;99.80;;;;;;5045314;28;19920;-87
2022/08/15 13:07:39;;;;;;;;;;;26.80;99.70;;;;;;5053951;28;19927;-84
2022/08/15 13:10:08;;;;;;;;;;;26.80;99.70;;;;;;5055056;28;19928;-85
2022/08/15 13:12:37;;;;;;;;;;;26.80;99.70;;;;;;5052408;28;19943;-83
2022/08/15 13:15:04;;;;;;;;;;;26.80;99.70;;;;;;5052648;28;19921;-84
2022/08/15 13:17:31;;;;;;;;;;;26.80;99.70;;;;;;5036158;28;19929;-83
2022/08/15 13:25:28;;;;;;;;;;;26.90;99.70;;;;;;5045939;28;19925;-84
2022/08/15 13:27:55;;;;;;;;;;;26.90;99.60;;;;;;5045543;28;20007;-83
2022/08/15 13:30:22;;;;;;;;;;;27.00;99.50;;;;;;5051097;28;19936;-83
2022/08/15 13:32:49;;;;;;;;;;;27.00;99.40;;;;;;5040056;28;19924;-85
2022/08/15 13:35:21;;;;;;;;;;;26.90;99.30;;;;;;5035426;28;19935;-87
2022/08/15 13:37:50;;;;;;;;;;;27.00;99.50;;;;;;5036919;28;19974;-84
2022/08/15 13:40:19;;;;;;;;;;;27.10;99.40;;;;;;5039190;28;19963;-84
2022/08/15 13:42:47;;;;;;;;;;;27.10;99.30;;;;;;5040992;28;19921;-84
2022/08/15 13:45:17;;;;;;;;;;;27.10;99.30;;;;;;5046078;28;19932;-85
2022/08/15 13:47:44;;;;;;;;;;;27.00;99.20;;;;;;5035427;28;19935;-85
2022/08/15 13:50:11;;;;;;;;;;;26.90;99.20;;;;;;5044211;28;19929;-85
2022/08/15 13:52:39;;;;;;;;;;;26.80;99.40;;;;;;5039217;28;19929;-84
2022/08/15 13:55:11;;;;;;;;;;;26.80;99.50;;;;;;5044402;28;19988;-84
2022/08/15 13:57:37;;;;;;;;;;;26.80;99.20;;;;;;5043778;28;20867;-87
2022/08/15 14:00:07;;;;;;;;;;;26.80;99.30;;;;;;5042725;28;19921;-84
2022/08/15 14:02:34;;;;;;;;;;;26.90;99.40;;;;;;5045792;28;19920;-84
2022/08/15 14:05:01;;;;;;;;;;;26.90;99.30;;;;;;5044656;28;19928;-86
2022/08/15 14:07:30;;;;;;;;;;;27.00;99.30;;;;;;5046495;28;19925;-87
2022/08/15 14:09:57;;;;;;;;;;;27.10;99.10;;;;;;5058991;28;20484;-86
2022/08/15 14:12:25;;;;;;;;;;;27.10;99.10;;;;;;5063844;28;19947;-86
2022/08/15 14:14:52;;;;;;;;;;;27.10;99.00;;;;;;5040894;28;19933;-87
2022/08/15 14:17:20;;;;;;;;;;;27.10;99.00;;;;;;5049071;28;19931;-85
2022/08/15 14:19:48;;;;;;;;;;;27.20;99.10;;;;;;5056126;28;20000;-87
2022/08/15 14:22:15;;;;;;;;;;;27.20;98.80;;;;;;5043442;28;19921;-87
2022/08/15 14:24:42;;;;;;;;;;;27.40;99.10;;;;;;5036433;28;20386;-86
2022/08/15 14:27:09;;;;;;;;;;;27.60;99.00;;;;;;5027090;28;19928;-84
2022/08/15 14:29:39;;;;;;;;;;;27.60;98.60;;;;;;5025903;28;19928;-84
2022/08/15 14:32:09;;;;;;;;;;;27.70;98.60;;;;;;5027678;28;20008;-85
2022/08/15 14:34:36;;;;;;;;;;;27.70;98.70;;;;;;5028573;28;19963;-84
2022/08/15 14:37:03;;;;;;;;;;;27.80;98.70;;;;;;5028900;28;19937;-86
2022/08/15 14:39:30;;;;;;;;;;;28.00;98.50;;;;;;5023930;28;19928;-86
2022/08/15 14:41:57;;;;;;;;;;;28.30;98.10;;;;;;5029052;28;19921;-85
2022/08/15 14:44:24;;;;;;;;;;;28.30;98.30;;;;;;5030913;28;20434;-85
2022/08/15 14:46:52;;;;;;;;;;;28.50;98.10;;;;;;5038146;28;20517;-84
2022/08/15 14:49:20;;;;;;;;;;;28.80;97.70;;;;;;5032184;28;19935;-84